sensor_id;sensor_type;location;lat;lon;timestamp;P1;durP1;ratioP1;P2;durP2;ratioP2
64686;SDS011;51113;53.646;-113.674;2023-03-01T00:01:43;3.58;;;1.88;;
64686;SDS011;51113;53.646;-113.674;2023-03-01T00:04:11;3.88;;;2.05;;
64686;SDS011;51113;53.646;-113.674;2023-03-01T00:06:41;3.95;;;2.05;;
64686;SDS011;51113;53.646;-113.674;2023-03-01T00:09:14;7.30;;;2.33;;
64686;SDS011;51113;53.646;-113.674;2023-03-01T00:11:44;6.25;;;2.05;;
64686;SDS011;51113;53.646;-113.674;2023-03-01T00:14:13;3.72;;;2.30;;
64686;SDS011;51113;53.646;-113.674;2023-03-01T00:16:44;2.33;;;1.70;;
64686;SDS011;51113;53.646;-113.674;2023-03-01T00:19:14;4.50;;;2.17;;
64686;SDS011;51113;53.646;-113.674;2023-03-01T00:21:45;5.90;;;2.08;;
64686;SDS011;51113;53.646;-113.674;2023-03-01T00:24:14;3.58;;;1.80;;
64686;SDS011;51113;53.646;-113.674;2023-03-01T00:26:43;3.95;;;2.20;;
64686;SDS011;51113;53.646;-113.674;2023-03-01T00:29:11;3.70;;;2.20;;
64686;SDS011;51113;53.646;-113.674;2023-03-01T00:31:40;4.80;;;2.53;;
64686;SDS011;51113;53.646;-113.674;2023-03-01T00:34:09;5.07;;;2.42;;
64686;SDS011;51113;53.646;-113.674;2023-03-01T00:36:37;4.35;;;2.38;;
64686;SDS011;51113;53.646;-113.674;2023-03-01T00:39:09;3.13;;;2.03;;
64686;SDS011;51113;53.646;-113.674;2023-03-01T00:44:08;3.45;;;1.98;;
64686;SDS011;51113;53.646;-113.674;2023-03-01T00:46:37;7.18;;;2.35;;
64686;SDS011;51113;53.646;-113.674;2023-03-01T00:49:06;8.70;;;2.00;;
64686;SDS011;51113;53.646;-113.674;2023-03-01T00:51:35;3.03;;;2.10;;
64686;SDS011;51113;53.646;-113.674;2023-03-01T00:54:03;4.28;;;2.15;;
64686;SDS011;51113;53.646;-113.674;2023-03-01T00:56:32;2.80;;;1.77;;
64686;SDS011;51113;53.646;-113.674;2023-03-01T00:59:01;4.00;;;2.10;;
64686;SDS011;51113;53.646;-113.674;2023-03-01T01:01:30;4.15;;;2.30;;
64686;SDS011;51113;53.646;-113.674;2023-03-01T01:04:01;5.13;;;2.30;;
64686;SDS011;51113;53.646;-113.674;2023-03-01T01:06:35;4.18;;;2.40;;
64686;SDS011;51113;53.646;-113.674;2023-03-01T01:09:06;2.88;;;1.55;;
64686;SDS011;51113;53.646;-113.674;2023-03-01T01:11:36;2.33;;;1.73;;
64686;SDS011;51113;53.646;-113.674;2023-03-01T01:14:04;3.75;;;1.98;;
64686;SDS011;51113;53.646;-113.674;2023-03-01T01:16:33;2.42;;;1.73;;
64686;SDS011;51113;53.646;-113.674;2023-03-01T01:19:02;3.67;;;1.90;;
64686;SDS011;51113;53.646;-113.674;2023-03-01T01:21:31;3.63;;;1.98;;
64686;SDS011;51113;53.646;-113.674;2023-03-01T01:24:00;2.60;;;1.75;;
64686;SDS011;51113;53.646;-113.674;2023-03-01T01:26:31;6.90;;;2.10;;
64686;SDS011;51113;53.646;-113.674;2023-03-01T01:29:02;3.03;;;1.85;;
64686;SDS011;51113;53.646;-113.674;2023-03-01T01:31:32;3.60;;;2.10;;
64686;SDS011;51113;53.646;-113.674;2023-03-01T01:34:03;3.17;;;2.28;;
64686;SDS011;51113;53.646;-113.674;2023-03-01T01:36:33;3.92;;;2.05;;
64686;SDS011;51113;53.646;-113.674;2023-03-01T01:39:02;5.35;;;2.50;;
64686;SDS011;51113;53.646;-113.674;2023-03-01T01:41:31;4.18;;;2.03;;
64686;SDS011;51113;53.646;-113.674;2023-03-01T01:44:19;4.95;;;2.03;;
64686;SDS011;51113;53.646;-113.674;2023-03-01T01:46:56;2.28;;;1.77;;
64686;SDS011;51113;53.646;-113.674;2023-03-01T01:54:57;5.20;;;2.15;;
64686;SDS011;51113;53.646;-113.674;2023-03-01T01:58:15;3.88;;;2.13;;
64686;SDS011;51113;53.646;-113.674;2023-03-01T02:00:25;4.03;;;2.20;;
64686;SDS011;51113;53.646;-113.674;2023-03-01T02:03:07;3.50;;;2.17;;
64686;SDS011;51113;53.646;-113.674;2023-03-01T02:05:57;3.05;;;1.95;;
64686;SDS011;51113;53.646;-113.674;2023-03-01T02:08:35;4.00;;;2.08;;
64686;SDS011;51113;53.646;-113.674;2023-03-01T02:11:07;4.72;;;2.50;;
64686;SDS011;51113;53.646;-113.674;2023-03-01T02:13:37;6.90;;;2.10;;
64686;SDS011;51113;53.646;-113.674;2023-03-01T02:16:10;4.20;;;2.03;;
64686;SDS011;51113;53.646;-113.674;2023-03-01T02:18:41;5.63;;;2.03;;
64686;SDS011;51113;53.646;-113.674;2023-03-01T02:24:23;4.85;;;1.90;;
64686;SDS011;51113;53.646;-113.674;2023-03-01T02:27:03;4.50;;;2.10;;
64686;SDS011;51113;53.646;-113.674;2023-03-01T02:29:31;2.88;;;1.98;;
64686;SDS011;51113;53.646;-113.674;2023-03-01T02:32:00;2.65;;;1.88;;
64686;SDS011;51113;53.646;-113.674;2023-03-01T02:34:31;5.13;;;2.10;;
64686;SDS011;51113;53.646;-113.674;2023-03-01T02:37:01;5.55;;;1.88;;
64686;SDS011;51113;53.646;-113.674;2023-03-01T02:39:35;6.90;;;2.40;;
64686;SDS011;51113;53.646;-113.674;2023-03-01T02:42:11;2.58;;;1.73;;
64686;SDS011;51113;53.646;-113.674;2023-03-01T02:44:41;3.33;;;1.95;;
64686;SDS011;51113;53.646;-113.674;2023-03-01T02:47:10;9.48;;;2.03;;
64686;SDS011;51113;53.646;-113.674;2023-03-01T02:49:38;3.65;;;2.10;;
64686;SDS011;51113;53.646;-113.674;2023-03-01T02:52:29;3.88;;;2.00;;
64686;SDS011;51113;53.646;-113.674;2023-03-01T02:55:14;2.92;;;2.00;;
64686;SDS011;51113;53.646;-113.674;2023-03-01T02:57:45;4.47;;;2.22;;
64686;SDS011;51113;53.646;-113.674;2023-03-01T03:00:19;3.17;;;2.10;;
64686;SDS011;51113;53.646;-113.674;2023-03-01T03:02:51;8.90;;;2.22;;
64686;SDS011;51113;53.646;-113.674;2023-03-01T03:05:22;2.80;;;2.03;;
64686;SDS011;51113;53.646;-113.674;2023-03-01T03:07:52;3.30;;;2.00;;
64686;SDS011;51113;53.646;-113.674;2023-03-01T03:10:22;3.95;;;1.92;;
64686;SDS011;51113;53.646;-113.674;2023-03-01T03:13:00;2.60;;;1.88;;
64686;SDS011;51113;53.646;-113.674;2023-03-01T03:15:31;2.72;;;1.90;;
64686;SDS011;51113;53.646;-113.674;2023-03-01T03:18:04;5.90;;;2.35;;
64686;SDS011;51113;53.646;-113.674;2023-03-01T03:20:34;8.88;;;2.00;;
64686;SDS011;51113;53.646;-113.674;2023-03-01T03:23:03;3.78;;;2.10;;
64686;SDS011;51113;53.646;-113.674;2023-03-01T03:25:32;4.13;;;2.15;;
64686;SDS011;51113;53.646;-113.674;2023-03-01T03:28:06;3.97;;;1.98;;
64686;SDS011;51113;53.646;-113.674;2023-03-01T03:30:38;4.10;;;2.00;;
64686;SDS011;51113;53.646;-113.674;2023-03-01T03:33:09;8.70;;;2.28;;
64686;SDS011;51113;53.646;-113.674;2023-03-01T03:35:46;5.75;;;2.47;;
64686;SDS011;51113;53.646;-113.674;2023-03-01T03:38:18;3.78;;;2.17;;
64686;SDS011;51113;53.646;-113.674;2023-03-01T03:40:50;5.93;;;2.20;;
64686;SDS011;51113;53.646;-113.674;2023-03-01T03:43:21;3.42;;;2.10;;
64686;SDS011;51113;53.646;-113.674;2023-03-01T03:45:51;5.50;;;2.28;;
64686;SDS011;51113;53.646;-113.674;2023-03-01T03:48:20;6.03;;;2.28;;
64686;SDS011;51113;53.646;-113.674;2023-03-01T03:50:49;7.28;;;2.47;;
64686;SDS011;51113;53.646;-113.674;2023-03-01T03:53:22;3.92;;;1.98;;
64686;SDS011;51113;53.646;-113.674;2023-03-01T03:55:52;4.03;;;2.20;;
64686;SDS011;51113;53.646;-113.674;2023-03-01T03:58:22;3.90;;;2.35;;
64686;SDS011;51113;53.646;-113.674;2023-03-01T04:00:54;3.30;;;2.40;;
64686;SDS011;51113;53.646;-113.674;2023-03-01T04:03:24;3.35;;;2.17;;
64686;SDS011;51113;53.646;-113.674;2023-03-01T04:05:54;6.30;;;2.22;;
64686;SDS011;51113;53.646;-113.674;2023-03-01T04:08:24;6.47;;;2.70;;
64686;SDS011;51113;53.646;-113.674;2023-03-01T04:11:01;4.75;;;2.50;;
64686;SDS011;51113;53.646;-113.674;2023-03-01T04:13:52;3.75;;;2.40;;
64686;SDS011;51113;53.646;-113.674;2023-03-01T04:16:21;8.02;;;2.25;;
64686;SDS011;51113;53.646;-113.674;2023-03-01T04:18:51;5.43;;;2.25;;
64686;SDS011;51113;53.646;-113.674;2023-03-01T04:21:21;4.78;;;2.72;;
64686;SDS011;51113;53.646;-113.674;2023-03-01T04:23:50;4.95;;;2.22;;
64686;SDS011;51113;53.646;-113.674;2023-03-01T04:26:20;3.90;;;2.00;;
64686;SDS011;51113;53.646;-113.674;2023-03-01T04:28:49;10.98;;;2.42;;
64686;SDS011;51113;53.646;-113.674;2023-03-01T04:31:18;3.92;;;2.40;;
64686;SDS011;51113;53.646;-113.674;2023-03-01T04:33:53;5.45;;;2.45;;
64686;SDS011;51113;53.646;-113.674;2023-03-01T04:36:24;5.43;;;2.53;;
64686;SDS011;51113;53.646;-113.674;2023-03-01T04:38:54;3.70;;;2.22;;
64686;SDS011;51113;53.646;-113.674;2023-03-01T04:41:24;6.45;;;2.47;;
64686;SDS011;51113;53.646;-113.674;2023-03-01T04:43:53;3.97;;;2.30;;
64686;SDS011;51113;53.646;-113.674;2023-03-01T04:46:22;2.83;;;1.95;;
64686;SDS011;51113;53.646;-113.674;2023-03-01T04:48:50;4.60;;;2.72;;
64686;SDS011;51113;53.646;-113.674;2023-03-01T04:51:19;7.82;;;2.70;;
64686;SDS011;51113;53.646;-113.674;2023-03-01T04:53:48;7.10;;;3.03;;
64686;SDS011;51113;53.646;-113.674;2023-03-01T04:56:16;5.20;;;2.20;;
64686;SDS011;51113;53.646;-113.674;2023-03-01T04:58:46;7.15;;;2.30;;
64686;SDS011;51113;53.646;-113.674;2023-03-01T05:01:16;4.30;;;1.88;;
64686;SDS011;51113;53.646;-113.674;2023-03-01T05:03:47;6.47;;;2.42;;
64686;SDS011;51113;53.646;-113.674;2023-03-01T05:06:20;5.18;;;2.30;;
64686;SDS011;51113;53.646;-113.674;2023-03-01T05:08:49;9.68;;;2.58;;
64686;SDS011;51113;53.646;-113.674;2023-03-01T05:11:18;3.88;;;2.40;;
64686;SDS011;51113;53.646;-113.674;2023-03-01T05:13:47;4.60;;;2.25;;
64686;SDS011;51113;53.646;-113.674;2023-03-01T05:16:17;3.13;;;2.20;;
64686;SDS011;51113;53.646;-113.674;2023-03-01T05:18:47;3.65;;;2.15;;
64686;SDS011;51113;53.646;-113.674;2023-03-01T05:21:18;3.83;;;2.10;;
64686;SDS011;51113;53.646;-113.674;2023-03-01T05:23:46;5.25;;;2.45;;
64686;SDS011;51113;53.646;-113.674;2023-03-01T05:26:16;4.82;;;2.00;;
64686;SDS011;51113;53.646;-113.674;2023-03-01T05:28:54;3.30;;;2.15;;
64686;SDS011;51113;53.646;-113.674;2023-03-01T05:31:26;7.95;;;2.45;;
64686;SDS011;51113;53.646;-113.674;2023-03-01T05:33:55;6.47;;;2.35;;
64686;SDS011;51113;53.646;-113.674;2023-03-01T05:36:24;5.82;;;2.90;;
64686;SDS011;51113;53.646;-113.674;2023-03-01T05:38:53;9.50;;;3.13;;
64686;SDS011;51113;53.646;-113.674;2023-03-01T05:41:21;5.80;;;3.17;;
64686;SDS011;51113;53.646;-113.674;2023-03-01T05:43:50;8.80;;;3.40;;
64686;SDS011;51113;53.646;-113.674;2023-03-01T05:46:19;7.43;;;3.17;;
64686;SDS011;51113;53.646;-113.674;2023-03-01T05:48:47;13.90;;;4.00;;
64686;SDS011;51113;53.646;-113.674;2023-03-01T05:51:16;9.70;;;3.70;;
64686;SDS011;51113;53.646;-113.674;2023-03-01T05:53:45;11.25;;;4.22;;
64686;SDS011;51113;53.646;-113.674;2023-03-01T05:56:13;10.05;;;4.00;;
64686;SDS011;51113;53.646;-113.674;2023-03-01T05:58:42;12.55;;;5.15;;
64686;SDS011;51113;53.646;-113.674;2023-03-01T06:01:11;11.85;;;4.72;;
64686;SDS011;51113;53.646;-113.674;2023-03-01T06:03:41;7.05;;;3.88;;
64686;SDS011;51113;53.646;-113.674;2023-03-01T06:06:10;10.55;;;3.85;;
64686;SDS011;51113;53.646;-113.674;2023-03-01T06:08:38;9.52;;;3.90;;
64686;SDS011;51113;53.646;-113.674;2023-03-01T06:11:06;6.40;;;3.45;;
64686;SDS011;51113;53.646;-113.674;2023-03-01T06:13:35;11.70;;;4.45;;
64686;SDS011;51113;53.646;-113.674;2023-03-01T06:16:05;10.48;;;3.40;;
64686;SDS011;51113;53.646;-113.674;2023-03-01T06:18:34;12.63;;;3.88;;
64686;SDS011;51113;53.646;-113.674;2023-03-01T06:21:03;8.25;;;3.10;;
64686;SDS011;51113;53.646;-113.674;2023-03-01T06:23:33;6.63;;;3.13;;
64686;SDS011;51113;53.646;-113.674;2023-03-01T06:26:06;7.70;;;3.00;;
64686;SDS011;51113;53.646;-113.674;2023-03-01T06:28:35;5.50;;;2.45;;
64686;SDS011;51113;53.646;-113.674;2023-03-01T06:31:04;6.57;;;2.60;;
64686;SDS011;51113;53.646;-113.674;2023-03-01T06:33:36;4.80;;;2.88;;
64686;SDS011;51113;53.646;-113.674;2023-03-01T06:36:05;5.22;;;2.85;;
64686;SDS011;51113;53.646;-113.674;2023-03-01T06:38:34;6.82;;;2.92;;
64686;SDS011;51113;53.646;-113.674;2023-03-01T06:41:03;5.13;;;2.40;;
64686;SDS011;51113;53.646;-113.674;2023-03-01T06:43:32;5.40;;;2.22;;
64686;SDS011;51113;53.646;-113.674;2023-03-01T06:46:03;4.40;;;2.45;;
64686;SDS011;51113;53.646;-113.674;2023-03-01T06:48:33;4.00;;;2.20;;
64686;SDS011;51113;53.646;-113.674;2023-03-01T06:51:02;4.32;;;2.40;;
64686;SDS011;51113;53.646;-113.674;2023-03-01T06:53:30;4.95;;;2.60;;
64686;SDS011;51113;53.646;-113.674;2023-03-01T06:55:59;4.88;;;2.63;;
64686;SDS011;51113;53.646;-113.674;2023-03-01T06:58:28;4.20;;;2.30;;
64686;SDS011;51113;53.646;-113.674;2023-03-01T07:00:57;4.47;;;2.35;;
64686;SDS011;51113;53.646;-113.674;2023-03-01T07:03:25;4.60;;;2.47;;
64686;SDS011;51113;53.646;-113.674;2023-03-01T07:05:54;5.20;;;2.67;;
64686;SDS011;51113;53.646;-113.674;2023-03-01T07:08:23;4.28;;;2.38;;
64686;SDS011;51113;53.646;-113.674;2023-03-01T07:10:55;5.45;;;3.08;;
64686;SDS011;51113;53.646;-113.674;2023-03-01T07:13:24;4.68;;;2.80;;
64686;SDS011;51113;53.646;-113.674;2023-03-01T07:15:53;6.13;;;2.63;;
64686;SDS011;51113;53.646;-113.674;2023-03-01T07:18:22;5.18;;;2.80;;
64686;SDS011;51113;53.646;-113.674;2023-03-01T07:20:50;8.88;;;2.90;;
64686;SDS011;51113;53.646;-113.674;2023-03-01T07:23:19;5.78;;;2.95;;
64686;SDS011;51113;53.646;-113.674;2023-03-01T07:25:52;8.73;;;2.60;;
64686;SDS011;51113;53.646;-113.674;2023-03-01T07:28:24;7.97;;;3.25;;
64686;SDS011;51113;53.646;-113.674;2023-03-01T07:30:53;16.45;;;3.60;;
64686;SDS011;51113;53.646;-113.674;2023-03-01T07:33:22;15.15;;;3.67;;
64686;SDS011;51113;53.646;-113.674;2023-03-01T07:35:55;7.82;;;3.17;;
64686;SDS011;51113;53.646;-113.674;2023-03-01T07:38:26;5.15;;;2.45;;
64686;SDS011;51113;53.646;-113.674;2023-03-01T07:40:58;4.65;;;2.70;;
64686;SDS011;51113;53.646;-113.674;2023-03-01T07:43:28;5.68;;;2.58;;
64686;SDS011;51113;53.646;-113.674;2023-03-01T07:45:58;5.45;;;2.30;;
64686;SDS011;51113;53.646;-113.674;2023-03-01T07:48:31;3.80;;;2.40;;
64686;SDS011;51113;53.646;-113.674;2023-03-01T07:51:00;4.30;;;2.28;;
64686;SDS011;51113;53.646;-113.674;2023-03-01T07:53:30;3.38;;;2.30;;
64686;SDS011;51113;53.646;-113.674;2023-03-01T07:56:02;6.80;;;2.58;;
64686;SDS011;51113;53.646;-113.674;2023-03-01T07:58:35;4.50;;;2.20;;
64686;SDS011;51113;53.646;-113.674;2023-03-01T08:01:09;4.68;;;2.50;;
64686;SDS011;51113;53.646;-113.674;2023-03-01T08:03:39;4.05;;;2.60;;
64686;SDS011;51113;53.646;-113.674;2023-03-01T08:06:09;6.18;;;2.42;;
64686;SDS011;51113;53.646;-113.674;2023-03-01T08:08:39;7.82;;;2.92;;
64686;SDS011;51113;53.646;-113.674;2023-03-01T08:11:10;6.35;;;2.85;;
64686;SDS011;51113;53.646;-113.674;2023-03-01T08:13:40;4.97;;;2.50;;
64686;SDS011;51113;53.646;-113.674;2023-03-01T08:16:12;11.10;;;3.22;;
64686;SDS011;51113;53.646;-113.674;2023-03-01T08:18:42;7.57;;;2.70;;
64686;SDS011;51113;53.646;-113.674;2023-03-01T08:21:15;4.00;;;2.35;;
64686;SDS011;51113;53.646;-113.674;2023-03-01T08:23:45;7.40;;;2.70;;
64686;SDS011;51113;53.646;-113.674;2023-03-01T08:26:14;6.70;;;2.83;;
64686;SDS011;51113;53.646;-113.674;2023-03-01T08:28:47;6.68;;;2.85;;
64686;SDS011;51113;53.646;-113.674;2023-03-01T08:31:18;7.47;;;2.63;;
64686;SDS011;51113;53.646;-113.674;2023-03-01T08:33:48;6.70;;;2.63;;
64686;SDS011;51113;53.646;-113.674;2023-03-01T08:36:23;5.15;;;2.70;;
64686;SDS011;51113;53.646;-113.674;2023-03-01T08:38:57;4.68;;;2.35;;
64686;SDS011;51113;53.646;-113.674;2023-03-01T08:41:26;7.05;;;2.72;;
64686;SDS011;51113;53.646;-113.674;2023-03-01T08:43:55;5.25;;;3.05;;
64686;SDS011;51113;53.646;-113.674;2023-03-01T08:46:31;6.35;;;2.83;;
64686;SDS011;51113;53.646;-113.674;2023-03-01T08:49:04;8.82;;;3.10;;
64686;SDS011;51113;53.646;-113.674;2023-03-01T08:51:41;5.43;;;3.20;;
64686;SDS011;51113;53.646;-113.674;2023-03-01T08:54:11;4.95;;;2.78;;
64686;SDS011;51113;53.646;-113.674;2023-03-01T08:56:42;5.25;;;2.90;;
64686;SDS011;51113;53.646;-113.674;2023-03-01T08:59:11;5.28;;;3.13;;
64686;SDS011;51113;53.646;-113.674;2023-03-01T09:01:41;5.50;;;2.78;;
64686;SDS011;51113;53.646;-113.674;2023-03-01T09:04:14;6.78;;;2.83;;
64686;SDS011;51113;53.646;-113.674;2023-03-01T09:06:44;6.22;;;2.58;;
64686;SDS011;51113;53.646;-113.674;2023-03-01T09:09:14;3.38;;;2.22;;
64686;SDS011;51113;53.646;-113.674;2023-03-01T09:11:44;3.80;;;2.47;;
64686;SDS011;51113;53.646;-113.674;2023-03-01T09:14:14;4.57;;;2.60;;
64686;SDS011;51113;53.646;-113.674;2023-03-01T09:16:42;6.30;;;3.08;;
64686;SDS011;51113;53.646;-113.674;2023-03-01T09:19:11;7.25;;;3.10;;
64686;SDS011;51113;53.646;-113.674;2023-03-01T09:21:40;5.05;;;2.72;;
64686;SDS011;51113;53.646;-113.674;2023-03-01T09:24:15;5.80;;;2.90;;
64686;SDS011;51113;53.646;-113.674;2023-03-01T09:26:43;7.47;;;2.95;;
64686;SDS011;51113;53.646;-113.674;2023-03-01T09:29:16;4.68;;;2.70;;
64686;SDS011;51113;53.646;-113.674;2023-03-01T09:31:45;12.38;;;3.08;;
64686;SDS011;51113;53.646;-113.674;2023-03-01T09:34:14;4.78;;;2.97;;
64686;SDS011;51113;53.646;-113.674;2023-03-01T09:36:51;6.35;;;2.90;;
64686;SDS011;51113;53.646;-113.674;2023-03-01T09:39:19;11.20;;;2.97;;
64686;SDS011;51113;53.646;-113.674;2023-03-01T09:44:26;10.07;;;3.30;;
64686;SDS011;51113;53.646;-113.674;2023-03-01T09:46:56;8.00;;;3.38;;
64686;SDS011;51113;53.646;-113.674;2023-03-01T09:49:25;6.30;;;2.90;;
64686;SDS011;51113;53.646;-113.674;2023-03-01T09:52:09;6.75;;;3.03;;
64686;SDS011;51113;53.646;-113.674;2023-03-01T09:54:40;10.57;;;3.45;;
64686;SDS011;51113;53.646;-113.674;2023-03-01T09:57:17;8.55;;;2.95;;
64686;SDS011;51113;53.646;-113.674;2023-03-01T10:00:09;5.95;;;3.05;;
64686;SDS011;51113;53.646;-113.674;2023-03-01T10:03:12;5.50;;;2.58;;
64686;SDS011;51113;53.646;-113.674;2023-03-01T10:09:02;9.38;;;3.67;;
64686;SDS011;51113;53.646;-113.674;2023-03-01T10:11:43;8.13;;;3.35;;
64686;SDS011;51113;53.646;-113.674;2023-03-01T10:14:29;7.13;;;3.35;;
64686;SDS011;51113;53.646;-113.674;2023-03-01T10:17:33;5.43;;;3.08;;
64686;SDS011;51113;53.646;-113.674;2023-03-01T10:23:09;7.35;;;3.50;;
64686;SDS011;51113;53.646;-113.674;2023-03-01T10:25:44;8.20;;;3.30;;
64686;SDS011;51113;53.646;-113.674;2023-03-01T10:28:29;6.95;;;3.30;;
64686;SDS011;51113;53.646;-113.674;2023-03-01T10:31:22;5.80;;;3.17;;
64686;SDS011;51113;53.646;-113.674;2023-03-01T10:33:57;7.10;;;3.20;;
64686;SDS011;51113;53.646;-113.674;2023-03-01T10:36:26;5.65;;;3.28;;
64686;SDS011;51113;53.646;-113.674;2023-03-01T10:38:56;7.65;;;3.60;;
64686;SDS011;51113;53.646;-113.674;2023-03-01T10:41:26;10.50;;;3.90;;
64686;SDS011;51113;53.646;-113.674;2023-03-01T10:43:56;13.88;;;3.30;;
64686;SDS011;51113;53.646;-113.674;2023-03-01T10:49:19;5.97;;;3.55;;
64686;SDS011;51113;53.646;-113.674;2023-03-01T10:51:48;10.35;;;3.90;;
64686;SDS011;51113;53.646;-113.674;2023-03-01T10:54:23;4.97;;;3.17;;
64686;SDS011;51113;53.646;-113.674;2023-03-01T10:57:02;6.35;;;3.25;;
64686;SDS011;51113;53.646;-113.674;2023-03-01T10:59:36;8.60;;;3.35;;
64686;SDS011;51113;53.646;-113.674;2023-03-01T11:05:01;6.32;;;3.45;;
64686;SDS011;51113;53.646;-113.674;2023-03-01T11:07:30;6.60;;;3.38;;
64686;SDS011;51113;53.646;-113.674;2023-03-01T11:09:59;5.65;;;3.28;;
64686;SDS011;51113;53.646;-113.674;2023-03-01T11:12:29;7.03;;;3.53;;
64686;SDS011;51113;53.646;-113.674;2023-03-01T11:14:58;11.07;;;3.83;;
64686;SDS011;51113;53.646;-113.674;2023-03-01T11:17:30;5.55;;;3.30;;
64686;SDS011;51113;53.646;-113.674;2023-03-01T11:23:25;6.70;;;3.55;;
64686;SDS011;51113;53.646;-113.674;2023-03-01T11:25:38;8.07;;;3.35;;
64686;SDS011;51113;53.646;-113.674;2023-03-01T11:28:11;7.55;;;3.30;;
64686;SDS011;51113;53.646;-113.674;2023-03-01T11:31:00;6.90;;;3.83;;
64686;SDS011;51113;53.646;-113.674;2023-03-01T11:33:41;9.48;;;3.20;;
64686;SDS011;51113;53.646;-113.674;2023-03-01T11:42:17;6.68;;;3.33;;
64686;SDS011;51113;53.646;-113.674;2023-03-01T11:45:10;8.50;;;3.25;;
64686;SDS011;51113;53.646;-113.674;2023-03-01T11:58:56;7.28;;;3.60;;
64686;SDS011;51113;53.646;-113.674;2023-03-01T12:07:07;7.60;;;3.67;;
64686;SDS011;51113;53.646;-113.674;2023-03-01T12:10:44;6.60;;;3.40;;
64686;SDS011;51113;53.646;-113.674;2023-03-01T12:33:21;8.50;;;3.55;;
64686;SDS011;51113;53.646;-113.674;2023-03-01T12:36:03;7.18;;;3.88;;
64686;SDS011;51113;53.646;-113.674;2023-03-01T12:44:29;7.13;;;3.40;;
64686;SDS011;51113;53.646;-113.674;2023-03-01T12:50:04;6.65;;;3.63;;
64686;SDS011;51113;53.646;-113.674;2023-03-01T12:55:52;6.65;;;3.80;;
64686;SDS011;51113;53.646;-113.674;2023-03-01T12:58:24;6.47;;;3.70;;
64686;SDS011;51113;53.646;-113.674;2023-03-01T13:06:39;8.63;;;4.53;;
64686;SDS011;51113;53.646;-113.674;2023-03-01T13:09:27;7.03;;;4.03;;
64686;SDS011;51113;53.646;-113.674;2023-03-01T13:17:57;6.55;;;3.95;;
64686;SDS011;51113;53.646;-113.674;2023-03-01T13:28:39;8.70;;;4.90;;
64686;SDS011;51113;53.646;-113.674;2023-03-01T13:33:44;7.38;;;4.20;;
64686;SDS011;51113;53.646;-113.674;2023-03-01T13:38:59;9.48;;;4.60;;
64686;SDS011;51113;53.646;-113.674;2023-03-01T13:44:16;10.05;;;4.82;;
64686;SDS011;51113;53.646;-113.674;2023-03-01T13:46:58;8.35;;;4.47;;
64686;SDS011;51113;53.646;-113.674;2023-03-01T13:52:43;7.95;;;4.18;;
64686;SDS011;51113;53.646;-113.674;2023-03-01T13:57:46;11.32;;;5.20;;
64686;SDS011;51113;53.646;-113.674;2023-03-01T14:02:59;10.40;;;5.13;;
64686;SDS011;51113;53.646;-113.674;2023-03-01T14:05:32;10.07;;;4.72;;
64686;SDS011;51113;53.646;-113.674;2023-03-01T14:08:02;12.35;;;5.05;;
64686;SDS011;51113;53.646;-113.674;2023-03-01T14:10:35;7.72;;;4.88;;
64686;SDS011;51113;53.646;-113.674;2023-03-01T14:19:18;10.98;;;5.10;;
64686;SDS011;51113;53.646;-113.674;2023-03-01T14:24:40;9.45;;;5.35;;
64686;SDS011;51113;53.646;-113.674;2023-03-01T14:27:17;8.75;;;4.97;;
64686;SDS011;51113;53.646;-113.674;2023-03-01T14:30:48;9.40;;;5.25;;
64686;SDS011;51113;53.646;-113.674;2023-03-01T14:32:55;8.55;;;5.13;;
64686;SDS011;51113;53.646;-113.674;2023-03-01T14:35:32;11.73;;;5.00;;
64686;SDS011;51113;53.646;-113.674;2023-03-01T14:38:03;8.32;;;5.40;;
64686;SDS011;51113;53.646;-113.674;2023-03-01T14:40:33;15.50;;;5.25;;
64686;SDS011;51113;53.646;-113.674;2023-03-01T14:43:10;10.23;;;5.30;;
64686;SDS011;51113;53.646;-113.674;2023-03-01T14:45:42;8.30;;;4.80;;
64686;SDS011;51113;53.646;-113.674;2023-03-01T14:48:15;8.32;;;4.68;;
64686;SDS011;51113;53.646;-113.674;2023-03-01T14:50:44;8.45;;;4.97;;
64686;SDS011;51113;53.646;-113.674;2023-03-01T14:53:27;8.13;;;4.82;;
64686;SDS011;51113;53.646;-113.674;2023-03-01T14:56:15;8.35;;;4.90;;
64686;SDS011;51113;53.646;-113.674;2023-03-01T14:58:51;9.15;;;4.47;;
64686;SDS011;51113;53.646;-113.674;2023-03-01T15:01:26;8.90;;;4.72;;
64686;SDS011;51113;53.646;-113.674;2023-03-01T15:03:55;7.20;;;4.25;;
64686;SDS011;51113;53.646;-113.674;2023-03-01T15:06:24;6.95;;;4.18;;
64686;SDS011;51113;53.646;-113.674;2023-03-01T15:08:53;6.93;;;4.40;;
64686;SDS011;51113;53.646;-113.674;2023-03-01T15:11:29;6.50;;;4.32;;
64686;SDS011;51113;53.646;-113.674;2023-03-01T15:13:59;8.75;;;4.25;;
64686;SDS011;51113;53.646;-113.674;2023-03-01T15:16:29;11.32;;;4.20;;
64686;SDS011;51113;53.646;-113.674;2023-03-01T15:19:00;6.78;;;4.40;;
64686;SDS011;51113;53.646;-113.674;2023-03-01T15:21:34;6.78;;;4.03;;
64686;SDS011;51113;53.646;-113.674;2023-03-01T15:26:51;6.85;;;4.05;;
64686;SDS011;51113;53.646;-113.674;2023-03-01T15:29:30;9.40;;;4.18;;
64686;SDS011;51113;53.646;-113.674;2023-03-01T15:32:05;9.55;;;4.25;;
64686;SDS011;51113;53.646;-113.674;2023-03-01T15:34:50;9.07;;;4.97;;
64686;SDS011;51113;53.646;-113.674;2023-03-01T15:40:27;8.18;;;4.57;;
64686;SDS011;51113;53.646;-113.674;2023-03-01T15:43:00;8.55;;;4.53;;
64686;SDS011;51113;53.646;-113.674;2023-03-01T15:45:31;7.18;;;4.28;;
64686;SDS011;51113;53.646;-113.674;2023-03-01T15:48:02;9.48;;;5.25;;
64686;SDS011;51113;53.646;-113.674;2023-03-01T15:50:33;8.93;;;5.20;;
64686;SDS011;51113;53.646;-113.674;2023-03-01T15:53:08;8.38;;;4.90;;
64686;SDS011;51113;53.646;-113.674;2023-03-01T15:55:40;8.65;;;4.60;;
64686;SDS011;51113;53.646;-113.674;2023-03-01T15:58:10;9.40;;;5.85;;
64686;SDS011;51113;53.646;-113.674;2023-03-01T16:00:42;17.77;;;5.55;;
64686;SDS011;51113;53.646;-113.674;2023-03-01T16:03:26;9.40;;;4.85;;
64686;SDS011;51113;53.646;-113.674;2023-03-01T16:05:55;7.97;;;4.82;;
64686;SDS011;51113;53.646;-113.674;2023-03-01T16:08:24;8.50;;;5.18;;
64686;SDS011;51113;53.646;-113.674;2023-03-01T16:10:53;10.63;;;5.90;;
64686;SDS011;51113;53.646;-113.674;2023-03-01T16:13:22;11.05;;;4.97;;
64686;SDS011;51113;53.646;-113.674;2023-03-01T16:15:53;9.38;;;4.88;;
64686;SDS011;51113;53.646;-113.674;2023-03-01T16:18:22;10.32;;;5.43;;
64686;SDS011;51113;53.646;-113.674;2023-03-01T16:20:51;10.07;;;5.18;;
64686;SDS011;51113;53.646;-113.674;2023-03-01T16:23:21;10.70;;;5.20;;
64686;SDS011;51113;53.646;-113.674;2023-03-01T16:25:52;10.98;;;5.80;;
64686;SDS011;51113;53.646;-113.674;2023-03-01T16:28:21;9.55;;;5.60;;
64686;SDS011;51113;53.646;-113.674;2023-03-01T16:30:50;9.90;;;5.50;;
64686;SDS011;51113;53.646;-113.674;2023-03-01T16:33:19;11.95;;;6.82;;
64686;SDS011;51113;53.646;-113.674;2023-03-01T16:36:05;13.00;;;5.45;;
64686;SDS011;51113;53.646;-113.674;2023-03-01T16:38:36;12.20;;;6.18;;
64686;SDS011;51113;53.646;-113.674;2023-03-01T16:41:05;11.73;;;6.07;;
64686;SDS011;51113;53.646;-113.674;2023-03-01T16:43:40;8.95;;;5.10;;
64686;SDS011;51113;53.646;-113.674;2023-03-01T16:49:06;9.55;;;5.68;;
64686;SDS011;51113;53.646;-113.674;2023-03-01T16:51:35;10.50;;;6.07;;
64686;SDS011;51113;53.646;-113.674;2023-03-01T16:54:03;10.82;;;6.15;;